Time;durP1;ratioP1;P1;durP2;ratioP2;P2;SDS_P1;SDS_P2;PMS_P1;PMS_P2;Temp;Humidity;BMP_temperature;BMP_pressure;BME280_temperature;BME280_humidity;BME280_pressure;Samples;Min_cycle;Max_cycle;Signal;HPM_P1;HPM_P2
2022/02/10 00:05:51;;;;;;;;;45.50;35.25;;;;;10.10;65.74;101513.91;5019708;28;45705;-74
2022/02/10 00:13:59;;;;;;;;;41.25;37.00;;;;;10.13;65.98;101506.81;5057446;28;45622;-76
2022/02/10 00:35:56;;;;;;;;;37.75;33.75;;;;;9.94;66.54;101507.81;5006064;28;45713;-74
2022/02/10 00:38:27;;;;;;;;;38.00;32.50;;;;;9.95;66.47;101514.72;5006536;28;46446;-74
2022/02/10 00:40:52;;;;;;;;;37.25;32.75;;;;;9.93;66.61;101515.75;5003863;28;45586;-73
2022/02/10 00:46:40;;;;;;;;;36.50;30.00;;;;;9.82;67.14;101508.47;5003011;28;45606;-75
2022/02/10 00:49:07;;;;;;;;;44.50;33.75;;;;;9.79;66.99;101506.00;4995273;28;45858;-75
2022/02/10 00:51:33;;;;;;;;;30.00;28.50;;;;;9.76;67.23;101498.34;4994758;28;45681;-74
2022/02/10 00:53:58;;;;;;;;;39.25;32.75;;;;;9.76;67.23;101508.81;4994592;28;45709;-74
2022/02/10 00:56:24;;;;;;;;;37.25;33.00;;;;;9.68;67.03;101506.59;4995524;28;46345;-74
2022/02/10 01:10:37;;;;;;;;;42.75;37.50;;;;;9.63;67.68;101511.22;5013759;28;46165;-74
2022/02/10 01:13:21;;;;;;;;;41.75;38.00;;;;;9.60;67.65;101518.41;5030502;28;45517;-75
2022/02/10 01:30:08;;;;;;;;;37.50;35.50;;;;;9.30;69.21;101519.97;4954787;28;45816;-76
2022/02/10 01:32:33;;;;;;;;;48.00;39.00;;;;;9.24;69.49;101521.97;4954355;28;46013;-76
2022/02/10 01:34:59;;;;;;;;;44.00;38.00;;;;;9.22;69.29;101523.84;4954581;28;45729;-73
2022/02/10 01:37:24;;;;;;;;;34.25;31.00;;;;;9.20;69.74;101530.03;4955504;28;45633;-76
2022/02/10 01:40:09;;;;;;;;;38.25;33.00;;;;;9.17;69.83;101527.59;4956716;28;47408;-76
2022/02/10 02:04:53;;;;;;;;;40.50;36.75;;;;;8.99;70.99;101534.59;5019625;28;45849;-78
2022/02/10 02:07:27;;;;;;;;;37.00;32.75;;;;;8.97;71.12;101528.56;5055171;28;45806;-78
2022/02/10 02:09:52;;;;;;;;;41.00;36.25;;;;;8.90;70.86;101528.97;5055220;28;45476;-77
2022/02/10 02:12:18;;;;;;;;;38.75;36.25;;;;;8.90;70.80;101535.03;5054764;28;46373;-76
2022/02/10 02:18:05;;;;;;;;;33.50;30.25;;;;;8.87;71.38;101532.56;5054844;28;45543;-77
2022/02/10 02:20:30;;;;;;;;;30.75;28.25;;;;;8.85;71.74;101532.63;5055087;28;45673;-77
2022/02/10 02:22:56;;;;;;;;;39.75;33.25;;;;;8.82;72.08;101538.03;5054653;28;47366;-77
2022/02/10 02:25:22;;;;;;;;;44.00;34.25;;;;;8.80;71.98;101539.00;5054486;28;45951;-77
2022/02/10 02:27:53;;;;;;;;;38.75;32.50;;;;;8.77;72.35;101541.78;5055277;28;45926;-77
2022/02/10 03:06:34;;;;;;;;;23.75;23.50;;;;;8.94;71.35;101509.59;5054302;28;45542;-76
2022/02/10 03:09:06;;;;;;;;;22.50;22.50;;;;;8.97;71.29;101499.81;5054387;28;46117;-77
2022/02/10 03:11:31;;;;;;;;;26.50;23.75;;;;;9.04;71.41;101519.53;5054426;28;45597;-75
2022/02/10 03:14:07;;;;;;;;;24.75;22.50;;;;;9.00;71.28;101506.69;5055094;28;45566;-78
2022/02/10 04:02:08;;;;;;;;;28.50;20.75;;;;;9.09;70.13;101554.13;4933049;28;45865;-74
2022/02/10 04:04:50;;;;;;;;;29.25;24.25;;;;;9.05;69.98;101549.97;4933153;28;45675;-77
2022/02/10 04:15:07;;;;;;;;;31.25;25.25;;;;;8.80;70.09;101550.31;4975060;28;46221;-76
2022/02/10 04:43:07;;;;;;;;;27.25;24.00;;;;;8.46;71.27;101565.06;4897819;29;45524;-74
2022/02/10 05:24:27;;;;;;;;;28.25;26.00;;;;;8.42;70.92;101577.44;4974164;28;45871;-78
2022/02/10 05:32:49;;;;;;;;;27.00;24.25;;;;;8.46;70.80;101570.28;4974102;28;45708;-76
2022/02/10 05:37:42;;;;;;;;;29.75;25.75;;;;;8.46;70.78;101571.13;4974292;28;45684;-76
2022/02/10 05:40:11;;;;;;;;;29.50;22.00;;;;;8.47;70.84;101579.81;4974149;28;46623;-74
2022/02/10 05:43:12;;;;;;;;;35.50;27.25;;;;;8.46;70.80;101575.50;4957329;28;48669;-74
2022/02/10 05:45:39;;;;;;;;;20.25;18.75;;;;;8.46;70.79;101583.34;4973104;28;45863;-74
2022/02/10 05:48:22;;;;;;;;;30.50;25.25;;;;;8.47;70.92;101577.22;4974064;28;45877;-73
2022/02/10 06:47:46;;;;;;;;;29.00;26.00;;;;;8.26;71.23;101608.56;4895843;29;45735;-75
2022/02/10 06:50:16;;;;;;;;;27.50;23.75;;;;;8.26;71.00;101603.34;4895695;29;45891;-74
2022/02/10 07:57:44;;;;;;;;;33.50;28.75;;;;;8.85;70.35;101659.84;5057519;28;45566;-76
2022/02/10 08:57:14;;;;;;;;;31.00;20.50;;;;;8.89;70.53;101697.13;5033983;28;45634;-76
2022/02/10 09:15:32;;;;;;;;;31.25;29.25;;;;;9.14;69.65;101697.66;5056099;28;45840;-78
2022/02/10 09:55:07;;;;;;;;;19.00;17.75;;;;;9.60;69.19;101725.91;5055630;28;45968;-77
2022/02/10 10:01:44;;;;;;;;;28.00;26.25;;;;;9.62;69.07;101729.28;5055527;28;45778;-77
2022/02/10 10:04:33;;;;;;;;;27.25;22.25;;;;;9.68;68.77;101721.13;5055068;28;46310;-78
2022/02/10 10:07:49;;;;;;;;;27.50;23.00;;;;;9.73;68.63;101730.53;5055111;28;46320;-76
2022/02/10 10:56:43;;;;;;;;;25.00;21.75;;;;;10.32;67.07;101761.56;5054477;28;45779;-78
2022/02/10 10:59:31;;;;;;;;;23.00;18.00;;;;;10.36;66.86;101742.19;5054386;28;46507;-75
2022/02/10 11:44:04;;;;;;;;;20.00;15.75;;;;;11.32;65.22;101719.44;5056115;28;46422;-74
2022/02/10 12:01:49;;;;;;;;;12.00;9.00;;;;;11.46;64.36;101674.03;5057496;28;45584;-77
2022/02/10 13:23:47;;;;;;;;;10.25;8.50;;;;;11.29;66.53;101591.91;5056047;28;45580;-74
2022/02/10 13:27:13;;;;;;;;;8.25;8.25;;;;;11.30;66.78;101603.25;5054948;28;45555;-76
2022/02/10 13:35:33;;;;;;;;;9.25;8.25;;;;;11.30;66.63;101590.97;5055752;28;45710;-77
2022/02/10 14:17:00;;;;;;;;;10.00;9.00;;;;;11.63;65.46;101567.13;4954070;28;45941;-79
2022/02/10 14:20:21;;;;;;;;;10.00;8.00;;;;;11.69;65.39;101566.78;4954434;28;45669;-77
2022/02/10 14:27:27;;;;;;;;;12.75;9.50;;;;;11.73;65.16;101552.56;4954058;28;45916;-77
2022/02/10 14:29:53;;;;;;;;;8.75;8.50;;;;;11.85;65.13;101563.25;4954077;28;45920;-76
2022/02/10 14:32:23;;;;;;;;;9.00;9.00;;;;;11.88;64.92;101563.91;4953896;28;47800;-79
2022/02/10 14:34:51;;;;;;;;;11.50;8.25;;;;;11.90;64.68;101554.16;4953465;28;47081;-75
2022/02/10 14:42:53;;;;;;;;;9.25;8.50;;;;;11.87;64.33;101546.47;4973478;28;45654;-75
2022/02/10 16:11:04;;;;;;;;;9.25;8.75;;;;;12.50;60.77;101533.69;5014938;28;45581;-76
2022/02/10 16:18:49;;;;;;;;;12.25;8.50;;;;;12.50;60.82;101527.59;5014689;28;45656;-76
2022/02/10 16:21:26;;;;;;;;;11.25;9.75;;;;;12.50;60.93;101532.84;5014472;28;46865;-77
2022/02/10 16:23:59;;;;;;;;;9.75;8.75;;;;;12.50;60.90;101523.19;5014570;28;46108;-75
2022/02/10 16:26:34;;;;;;;;;14.25;10.75;;;;;12.50;60.79;101523.19;5014631;28;45647;-77
2022/02/10 16:29:01;;;;;;;;;11.50;10.75;;;;;12.50;60.77;101517.94;4999020;28;46001;-76
2022/02/10 16:31:27;;;;;;;;;15.00;10.75;;;;;12.49;61.00;101520.66;5013995;28;46670;-77
2022/02/10 16:33:52;;;;;;;;;11.00;10.00;;;;;12.44;61.03;101514.84;5014145;28;46510;-77
2022/02/10 16:36:18;;;;;;;;;11.75;11.50;;;;;12.47;61.11;101517.28;5014385;28;46200;-75
2022/02/10 16:38:46;;;;;;;;;11.00;9.50;;;;;12.42;61.02;101514.94;5014332;28;45617;-78
2022/02/10 16:41:13;;;;;;;;;11.50;10.00;;;;;12.45;60.93;101522.63;5015414;28;46570;-78
2022/02/10 16:43:39;;;;;;;;;9.00;9.00;;;;;12.43;61.01;101518.41;5014385;28;46376;-76
2022/02/10 16:46:08;;;;;;;;;9.00;8.25;;;;;12.42;60.92;101525.44;5013981;28;45683;-76
2022/02/10 16:48:34;;;;;;;;;11.00;9.25;;;;;12.35;60.92;101521.53;5013881;28;45857;-77
2022/02/10 16:51:01;;;;;;;;;9.75;8.50;;;;;12.39;60.93;101525.66;5013907;28;46371;-76
2022/02/10 16:57:05;;;;;;;;;10.00;8.50;;;;;12.28;60.83;101525.50;5055876;28;45782;-76
2022/02/10 17:21:00;;;;;;;;;9.75;9.75;;;;;12.08;61.38;101534.63;5055427;28;45691;-75
2022/02/10 17:29:25;;;;;;;;;18.50;15.75;;;;;12.06;63.33;101586.41;5013207;28;45866;-76
2022/02/10 17:34:50;;;;;;;;;21.25;16.50;;;;;11.82;67.52;101605.44;5012983;28;46412;-77
2022/02/10 17:57:29;;;;;;;;;5.00;5.00;;;;;9.99;73.63;101660.22;5032395;28;45665;-76
2022/02/10 17:59:54;;;;;;;;;6.00;6.00;;;;;9.84;74.20;101674.09;5032604;28;46099;-76
2022/02/10 18:02:19;;;;;;;;;5.75;5.00;;;;;9.74;74.33;101677.28;5007901;28;45704;-74
2022/02/10 18:04:45;;;;;;;;;7.75;5.50;;;;;9.63;73.66;101677.81;4993036;28;45859;-77
2022/02/10 18:07:13;;;;;;;;;3.00;2.75;;;;;9.50;74.82;101668.91;4993159;28;47269;-76
2022/02/10 18:15:23;;;;;;;;;5.50;5.50;;;;;9.18;75.22;101675.66;4993176;28;45799;-78
2022/02/10 18:17:58;;;;;;;;;7.00;7.00;;;;;9.12;75.36;101691.69;4992760;28;47568;-78
2022/02/10 18:20:31;;;;;;;;;5.00;5.00;;;;;8.99;76.18;101673.09;4977507;28;46047;-77
2022/02/10 19:07:00;;;;;;;;;2.00;2.00;;;;;8.24;75.86;101763.56;5033894;28;45643;-78
2022/02/10 19:12:59;;;;;;;;;2.00;1.00;;;;;8.05;76.11;101766.09;5033958;28;45670;-78
2022/02/10 19:15:33;;;;;;;;;2.25;1.00;;;;;8.02;76.41;101777.53;5033192;28;46659;-79
2022/02/10 19:18:03;;;;;;;;;3.00;2.00;;;;;7.99;75.88;101802.88;5033272;28;45628;-79
2022/02/10 19:20:29;;;;;;;;;0.00;0.00;;;;;7.93;75.93;101792.72;5033433;28;45576;-76
2022/02/10 19:22:55;;;;;;;;;1.25;1.25;;;;;7.91;75.52;101784.94;5033267;28;45604;-78
2022/02/10 19:25:21;;;;;;;;;0.00;0.00;;;;;7.88;75.24;101781.63;5033414;28;46513;-79
2022/02/10 19:27:50;;;;;;;;;0.50;0.00;;;;;7.81;75.39;101794.06;5049530;28;45659;-75
2022/02/10 19:30:18;;;;;;;;;1.00;0.25;;;;;7.82;74.14;101792.31;5034077;28;45661;-78
2022/02/10 19:32:53;;;;;;;;;1.00;0.00;;;;;7.75;74.84;101786.50;5015614;28;48877;-76
2022/02/10 19:35:22;;;;;;;;;0.50;0.50;;;;;7.78;74.62;101791.56;5033816;28;46097;-77
2022/02/10 19:37:54;;;;;;;;;0.00;0.00;;;;;7.76;73.67;101797.78;5033636;28;45833;-76
2022/02/10 19:40:19;;;;;;;;;1.00;1.00;;;;;7.73;73.62;101809.16;5048613;28;45498;-78
2022/02/10 19:42:47;;;;;;;;;1.00;0.00;;;;;7.64;74.37;101798.25;5057431;28;45561;-80
2022/02/10 19:45:13;;;;;;;;;1.00;1.00;;;;;7.69;73.54;101819.78;5057022;28;46092;-76
2022/02/10 19:47:40;;;;;;;;;1.00;1.00;;;;;7.59;73.87;101799.28;5056842;28;45467;-77
2022/02/10 19:50:12;;;;;;;;;0.00;0.00;;;;;7.57;73.97;101805.47;5056995;28;45603;-76
2022/02/10 19:52:39;;;;;;;;;1.00;1.00;;;;;7.58;73.84;101810.63;5056799;28;46642;-78
2022/02/10 19:55:08;;;;;;;;;1.00;0.00;;;;;7.63;74.16;101818.25;5054921;28;46286;-78
2022/02/10 19:57:37;;;;;;;;;1.25;1.00;;;;;7.61;74.28;101808.81;5056928;28;45803;-80
2022/02/10 20:00:09;;;;;;;;;3.25;2.00;;;;;7.63;74.24;101823.47;5055977;28;45528;-77
2022/02/10 20:02:34;;;;;;;;;2.00;2.00;;;;;7.64;74.37;101829.56;5055690;28;46580;-79
2022/02/10 20:05:00;;;;;;;;;1.00;1.00;;;;;7.55;74.13;101800.34;5057180;28;46058;-77
2022/02/10 20:07:25;;;;;;;;;2.75;2.75;;;;;7.63;74.49;101817.41;5057160;28;45692;-78
2022/02/10 20:13:16;;;;;;;;;3.25;3.25;;;;;7.56;74.35;101819.41;5056922;28;45494;-80
2022/02/10 20:15:47;;;;;;;;;1.00;1.00;;;;;7.61;74.27;101840.13;5056866;28;47258;-77
2022/02/10 20:18:15;;;;;;;;;2.25;2.25;;;;;7.52;74.45;101829.13;5056497;28;45640;-79
2022/02/10 20:20:41;;;;;;;;;3.25;2.25;;;;;7.57;74.73;101834.16;5057044;28;45650;-76
2022/02/10 20:23:08;;;;;;;;;3.25;3.25;;;;;7.56;74.42;101828.09;5056260;28;47463;-75
2022/02/10 20:25:34;;;;;;;;;5.00;3.25;;;;;7.57;74.51;101824.56;5056346;28;46478;-76
2022/02/10 20:27:59;;;;;;;;;3.50;2.75;;;;;7.58;75.22;101833.25;5056403;28;45735;-76
2022/02/10 20:30:25;;;;;;;;;5.00;5.00;;;;;7.57;75.01;101840.22;5056681;28;45689;-77
2022/02/10 20:32:50;;;;;;;;;7.00;6.00;;;;;7.52;74.67;101836.94;5056540;28;45911;-77
2022/02/10 20:35:18;;;;;;;;;7.50;6.00;;;;;7.55;74.53;101836.84;5056175;28;45785;-74
2022/02/10 20:37:43;;;;;;;;;10.50;8.50;;;;;7.61;74.32;101847.94;5056332;28;45856;-77
2022/02/10 20:44:10;;;;;;;;;6.00;6.00;;;;;7.52;74.35;101802.19;5055337;28;45689;-76
2022/02/10 20:46:41;;;;;;;;;6.00;5.50;;;;;7.63;74.38;101830.44;5056057;28;45654;-76
2022/02/10 20:49:15;;;;;;;;;9.25;6.50;;;;;7.63;74.28;101838.28;5056063;28;45862;-74
2022/02/10 20:51:40;;;;;;;;;8.00;6.25;;;;;7.66;74.49;101851.22;5055285;28;45654;-77
2022/02/10 20:54:05;;;;;;;;;6.00;6.00;;;;;7.65;74.54;101854.72;5056068;28;47228;-74
2022/02/10 20:56:31;;;;;;;;;5.75;5.75;;;;;7.63;74.75;101848.72;5054694;28;46136;-74
2022/02/10 20:58:59;;;;;;;;;5.00;5.00;;;;;7.63;74.58;101865.22;5055732;28;45509;-77
2022/02/10 21:01:25;;;;;;;;;2.25;2.25;;;;;7.63;74.44;101886.06;5055856;28;45521;-76
2022/02/10 21:03:50;;;;;;;;;5.00;3.00;;;;;7.56;74.32;101872.41;5055526;28;46530;-76
2022/02/10 21:07:08;;;;;;;;;5.25;3.00;;;;;7.59;74.38;101879.28;5056002;28;46083;-76
2022/02/10 21:09:11;;;;;;;;;3.25;3.25;;;;;7.56;74.33;101868.94;5047325;28;45914;-78
2022/02/10 21:11:37;;;;;;;;;2.00;2.00;;;;;7.57;74.32;101876.72;5056240;28;45668;-74
2022/02/10 21:14:07;;;;;;;;;1.75;1.75;;;;;7.58;74.66;101883.66;5056003;28;45676;-76
2022/02/10 21:16:36;;;;;;;;;2.00;2.00;;;;;7.57;74.12;101879.34;5055938;28;46068;-74
2022/02/10 21:19:01;;;;;;;;;2.00;2.00;;;;;7.56;74.09;101893.28;5055610;28;45803;-73
2022/02/10 21:21:27;;;;;;;;;2.75;2.75;;;;;7.51;74.01;101873.50;5055376;28;45598;-76
2022/02/10 21:23:58;;;;;;;;;2.00;2.00;;;;;7.54;74.12;101878.63;5055669;28;46728;-74
2022/02/10 21:26:30;;;;;;;;;5.00;3.00;;;;;7.52;74.09;101883.03;5056015;28;46170;-74
2022/02/10 21:29:01;;;;;;;;;3.25;3.25;;;;;7.51;74.33;101884.78;5071594;28;45902;-77
2022/02/10 21:31:27;;;;;;;;;3.00;2.00;;;;;7.48;74.05;101878.84;5054733;28;45605;-77
2022/02/10 21:34:13;;;;;;;;;4.50;2.25;;;;;7.45;74.48;101876.38;5055509;28;47598;-77
2022/02/10 21:39:38;;;;;;;;;3.50;2.00;;;;;7.45;74.38;101868.53;5055648;28;45767;-77
2022/02/10 21:47:50;;;;;;;;;4.25;4.00;;;;;7.43;74.61;101891.19;5054346;28;45558;-77
2022/02/10 22:23:21;;;;;;;;;6.00;4.50;;;;;7.18;74.85;101919.09;5012099;28;46052;-76
2022/02/10 22:29:24;;;;;;;;;5.00;4.25;;;;;7.13;74.76;101916.63;5011947;28;45680;-74
2022/02/10 22:37:03;;;;;;;;;8.00;5.75;;;;;7.15;74.77;101930.44;5052050;28;45720;-73
2022/02/10 22:39:34;;;;;;;;;9.75;8.00;;;;;7.16;74.47;101927.81;5051544;28;46370;-75
2022/02/10 22:42:00;;;;;;;;;6.00;6.00;;;;;7.18;74.42;101932.94;5035282;28;46258;-74
2022/02/10 22:44:25;;;;;;;;;5.25;5.25;;;;;7.16;74.21;101930.41;5050778;28;45678;-76
2022/02/10 22:46:51;;;;;;;;;5.75;4.50;;;;;7.17;74.52;101931.25;5051756;28;45847;-75
2022/02/10 22:49:16;;;;;;;;;6.00;5.75;;;;;7.17;74.60;101931.25;5051862;28;45533;-76
2022/02/10 22:51:42;;;;;;;;;5.00;4.75;;;;;7.09;74.44;101918.50;5053688;28;46183;-75
2022/02/10 22:54:07;;;;;;;;;5.50;5.00;;;;;7.11;74.46;101927.13;5054219;28;45519;-74
2022/02/10 22:59:58;;;;;;;;;9.00;6.50;;;;;7.04;74.77;101943.00;5053588;28;45660;-77
2022/02/10 23:02:24;;;;;;;;;5.50;5.25;;;;;7.00;75.26;101928.41;5053835;28;47426;-77
2022/02/10 23:04:49;;;;;;;;;6.00;5.75;;;;;6.95;74.97;101932.91;5054593;28;45661;-77
2022/02/10 23:07:14;;;;;;;;;8.25;6.50;;;;;6.93;74.77;101940.78;5056240;28;45785;-76
2022/02/10 23:09:48;;;;;;;;;9.75;9.00;;;;;6.89;75.00;101930.53;5055810;28;45424;-75
2022/02/10 23:12:14;;;;;;;;;6.75;6.75;;;;;6.90;74.74;101943.50;5054528;28;46122;-76
2022/02/10 23:14:39;;;;;;;;;8.25;6.25;;;;;6.90;74.68;101942.66;5068712;28;45502;-78
2022/02/10 23:17:04;;;;;;;;;7.00;6.00;;;;;6.87;74.99;101956.59;5054159;28;45554;-73
2022/02/10 23:19:30;;;;;;;;;8.50;7.75;;;;;6.86;75.06;101959.25;5056392;28;46528;-75
2022/02/10 23:21:55;;;;;;;;;9.00;6.50;;;;;6.72;74.89;101944.13;5057769;28;45554;-74
2022/02/10 23:24:21;;;;;;;;;9.25;9.25;;;;;6.64;74.87;101933.94;5064844;28;45734;-71
2022/02/10 23:30:08;;;;;;;;;12.25;9.75;;;;;6.73;75.03;101970.13;5073212;28;45579;-76
2022/02/10 23:32:34;;;;;;;;;15.00;10.00;;;;;6.65;75.07;101961.69;5089954;28;45894;-75
2022/02/10 23:35:02;;;;;;;;;9.75;9.00;;;;;6.68;75.04;101974.63;5073135;28;45294;-75
2022/02/10 23:37:29;;;;;;;;;14.75;13.00;;;;;6.66;75.30;101980.75;5073497;28;45680;-73
2022/02/10 23:39:56;;;;;;;;;16.00;12.50;;;;;6.65;75.24;101979.06;5074513;28;47448;-74
2022/02/10 23:42:31;;;;;;;;;8.75;7.00;;;;;6.64;75.34;101987.78;5074596;28;46061;-76
2022/02/10 23:45:05;;;;;;;;;12.00;11.00;;;;;6.62;74.99;101984.38;5062622;28;45815;-79
2022/02/10 23:47:32;;;;;;;;;13.00;12.25;;;;;6.58;75.27;101988.84;5055910;28;45764;-78
2022/02/10 23:49:59;;;;;;;;;15.25;11.00;;;;;6.56;75.36;101988.03;5055792;28;45590;-78
2022/02/10 23:52:26;;;;;;;;;11.00;10.50;;;;;6.49;75.75;101978.72;5055143;28;46027;-79
2022/02/10 23:54:56;;;;;;;;;14.50;10.25;;;;;6.51;75.05;101987.34;5061238;28;45766;-75
